Lancaster, OH (43130)

7:43 PM EDT on July 03, 2015 (GMT -0400)
W Wheeling St Near N George St | | Change Station
CLOSE
Current Station
Personal Weather Station
Location: Lancaster, OH
Elevation: 835 ft
Nearby Weather Stations

Elev 835 ft 39.71 °N, 82.61 °W | Updated 17 seconds ago

Overcast
Overcast
66.8 °F
Feels Like 66.8 °F
N
0.0
Wind Variable Wind from NNE
Gusts 0.0 mph

Today
High -- | Low -- °F
--% Chance of Precip.
Yesterday
High -- | Low -- °F
Precip. -- in
6:07 AM 9:01 PM
Waning Gibbous, 95% visible
Pressure 29.89 in
Visibility 6.0 miles
Clouds Few 900 ft
Overcast 3500 ft
Dew Point 64 °F
Humidity 92%
Rainfall 0.46 in
Snow Depth Not available.
UV 0.0 out of 12
Pollen 1.20 out of 12
Air Quality Not available.
Flu Activity Not available.
SPECI KLHQ 032317Z AUTO 04003KT 6SM HZ FEW009 OVC035 21/17 A2989 RMK AO2 RAE11 P0000 T02060172

More Conditions Fewer Conditions

Pressure 29.89 in
Visibility 6.0 miles
Clouds Few 900 ft
Overcast 3500 ft
Dew Point 64 °F
Humidity 92%
Rainfall 0.46 in
Snow Depth Not available.
UV 0.0 out of 12
Pollen 1.20 out of 12
Air Quality Not available.
Flu Activity Not available.
SPECI KLHQ 032317Z AUTO 04003KT 6SM HZ FEW009 OVC035 21/17 A2989 RMK AO2 RAE11 P0000 T02060172

More Conditions Fewer Conditions

10-Day Weather Forecast

×

Almanac

Astronomy

Jul. 03, 2015 Rise Set
Actual Time
Civil Twilight
Nautical Twilight
Astronomical Twilight
Moon
Length of Visible Light
Length of Day
Tomorrow will be .
, % of the Moon is Illuminated

Today's Extremes

State Highs State Lows

Community

WunderPhotos

Upload Photos

1,834,823 photos uploaded!

WunderBlogs® & News

Nearby

Air Quality

  Air Quality AQ Index Pollutant
Not available.

Snow Depth

Station Depth Elevation

Earthquake Activity

City Distance Mag. Time & Date
Minimum magnitude displayed is 2.5.

Coastal Water Temperatures

Place Temperature

Stations

Nearby Weather Stations

Station Location Temp. Windchill Dew Point Humidity Wind Precip. Elev Updated Type